sensor_id;sensor_type;location;lat;lon;timestamp;P1;durP1;ratioP1;P2;durP2;ratioP2
58089;SDS011;45149;50.976;6.120;2023-11-21T00:01:07;11.27;;;8.02;;
58089;SDS011;45149;50.976;6.120;2023-11-21T00:03:32;10.43;;;8.23;;
58089;SDS011;45149;50.976;6.120;2023-11-21T00:05:57;12.97;;;8.63;;
58089;SDS011;45149;50.976;6.120;2023-11-21T00:08:22;11.43;;;8.03;;
58089;SDS011;45149;50.976;6.120;2023-11-21T00:10:47;12.43;;;9.07;;
58089;SDS011;45149;50.976;6.120;2023-11-21T00:13:13;10.93;;;8.37;;
58089;SDS011;45149;50.976;6.120;2023-11-21T00:15:39;12.13;;;8.48;;
58089;SDS011;45149;50.976;6.120;2023-11-21T00:18:05;10.43;;;8.07;;
58089;SDS011;45149;50.976;6.120;2023-11-21T00:20:30;11.05;;;7.93;;
58089;SDS011;45149;50.976;6.120;2023-11-21T00:22:55;12.37;;;8.20;;
58089;SDS011;45149;50.976;6.120;2023-11-21T00:25:20;10.43;;;7.60;;
58089;SDS011;45149;50.976;6.120;2023-11-21T00:27:45;11.00;;;8.27;;
58089;SDS011;45149;50.976;6.120;2023-11-21T00:30:11;10.93;;;7.77;;
58089;SDS011;45149;50.976;6.120;2023-11-21T00:32:38;10.23;;;7.80;;
58089;SDS011;45149;50.976;6.120;2023-11-21T00:35:03;11.27;;;7.63;;
58089;SDS011;45149;50.976;6.120;2023-11-21T00:37:28;10.18;;;7.70;;
58089;SDS011;45149;50.976;6.120;2023-11-21T00:39:53;11.13;;;7.70;;
58089;SDS011;45149;50.976;6.120;2023-11-21T00:42:19;11.73;;;7.83;;
58089;SDS011;45149;50.976;6.120;2023-11-21T00:44:44;10.10;;;7.73;;
58089;SDS011;45149;50.976;6.120;2023-11-21T00:47:09;10.03;;;7.40;;
58089;SDS011;45149;50.976;6.120;2023-11-21T00:49:36;10.47;;;7.63;;
58089;SDS011;45149;50.976;6.120;2023-11-21T00:52:01;11.85;;;7.95;;
58089;SDS011;45149;50.976;6.120;2023-11-21T00:54:26;9.33;;;7.37;;
58089;SDS011;45149;50.976;6.120;2023-11-21T00:56:52;10.50;;;7.63;;
58089;SDS011;45149;50.976;6.120;2023-11-21T00:59:17;10.30;;;7.80;;
58089;SDS011;45149;50.976;6.120;2023-11-21T01:01:42;10.43;;;7.93;;
58089;SDS011;45149;50.976;6.120;2023-11-21T01:04:07;11.47;;;7.70;;
58089;SDS011;45149;50.976;6.120;2023-11-21T01:06:34;10.30;;;7.93;;
58089;SDS011;45149;50.976;6.120;2023-11-21T01:08:59;10.50;;;7.68;;
58089;SDS011;45149;50.976;6.120;2023-11-21T01:11:24;10.93;;;8.03;;
58089;SDS011;45149;50.976;6.120;2023-11-21T01:13:49;11.57;;;7.57;;
58089;SDS011;45149;50.976;6.120;2023-11-21T01:16:14;9.85;;;7.43;;
58089;SDS011;45149;50.976;6.120;2023-11-21T01:18:39;10.50;;;7.23;;
58089;SDS011;45149;50.976;6.120;2023-11-21T01:21:05;9.10;;;7.30;;
58089;SDS011;45149;50.976;6.120;2023-11-21T01:23:32;11.05;;;7.80;;
58089;SDS011;45149;50.976;6.120;2023-11-21T01:25:57;9.75;;;7.35;;
58089;SDS011;45149;50.976;6.120;2023-11-21T01:28:22;9.85;;;7.30;;
58089;SDS011;45149;50.976;6.120;2023-11-21T01:30:47;9.43;;;7.13;;
58089;SDS011;45149;50.976;6.120;2023-11-21T01:33:12;9.67;;;7.33;;
58089;SDS011;45149;50.976;6.120;2023-11-21T01:35:38;9.97;;;7.37;;
58089;SDS011;45149;50.976;6.120;2023-11-21T01:38:03;8.63;;;6.67;;
58089;SDS011;45149;50.976;6.120;2023-11-21T01:40:29;10.47;;;6.97;;
58089;SDS011;45149;50.976;6.120;2023-11-21T01:42:54;8.88;;;7.15;;
58089;SDS011;45149;50.976;6.120;2023-11-21T01:45:20;9.20;;;7.07;;
58089;SDS011;45149;50.976;6.120;2023-11-21T01:47:45;9.67;;;7.23;;
58089;SDS011;45149;50.976;6.120;2023-11-21T01:50:12;9.27;;;7.00;;
58089;SDS011;45149;50.976;6.120;2023-11-21T01:52:38;8.30;;;6.53;;
58089;SDS011;45149;50.976;6.120;2023-11-21T01:55:03;11.32;;;7.78;;
58089;SDS011;45149;50.976;6.120;2023-11-21T01:57:31;9.40;;;7.20;;
58089;SDS011;45149;50.976;6.120;2023-11-21T01:59:56;9.57;;;7.22;;
58089;SDS011;45149;50.976;6.120;2023-11-21T02:02:23;8.90;;;7.03;;
58089;SDS011;45149;50.976;6.120;2023-11-21T02:04:48;8.63;;;6.67;;
58089;SDS011;45149;50.976;6.120;2023-11-21T02:07:13;8.73;;;6.70;;
58089;SDS011;45149;50.976;6.120;2023-11-21T02:09:38;9.43;;;6.93;;
58089;SDS011;45149;50.976;6.120;2023-11-21T02:12:04;8.57;;;6.73;;
58089;SDS011;45149;50.976;6.120;2023-11-21T02:14:30;9.10;;;6.68;;
58089;SDS011;45149;50.976;6.120;2023-11-21T02:16:56;9.02;;;6.85;;
58089;SDS011;45149;50.976;6.120;2023-11-21T02:19:21;8.98;;;6.80;;
58089;SDS011;45149;50.976;6.120;2023-11-21T02:21:47;9.07;;;7.30;;
58089;SDS011;45149;50.976;6.120;2023-11-21T02:24:13;9.53;;;7.10;;
58089;SDS011;45149;50.976;6.120;2023-11-21T02:26:38;8.93;;;6.82;;
58089;SDS011;45149;50.976;6.120;2023-11-21T02:29:03;9.00;;;6.87;;
58089;SDS011;45149;50.976;6.120;2023-11-21T02:31:29;8.63;;;6.63;;
58089;SDS011;45149;50.976;6.120;2023-11-21T02:33:54;9.00;;;6.90;;
58089;SDS011;45149;50.976;6.120;2023-11-21T02:36:19;8.83;;;6.60;;
58089;SDS011;45149;50.976;6.120;2023-11-21T02:38:44;8.67;;;6.73;;
58089;SDS011;45149;50.976;6.120;2023-11-21T02:41:11;8.87;;;7.00;;
58089;SDS011;45149;50.976;6.120;2023-11-21T02:43:36;8.27;;;6.38;;
58089;SDS011;45149;50.976;6.120;2023-11-21T02:46:01;8.90;;;6.80;;
58089;SDS011;45149;50.976;6.120;2023-11-21T02:48:26;8.07;;;6.60;;
58089;SDS011;45149;50.976;6.120;2023-11-21T02:50:51;10.07;;;6.97;;
58089;SDS011;45149;50.976;6.120;2023-11-21T02:53:16;9.03;;;6.93;;
58089;SDS011;45149;50.976;6.120;2023-11-21T02:55:42;8.17;;;6.27;;
58089;SDS011;45149;50.976;6.120;2023-11-21T02:58:08;8.13;;;6.20;;
58089;SDS011;45149;50.976;6.120;2023-11-21T03:00:33;8.07;;;6.22;;
58089;SDS011;45149;50.976;6.120;2023-11-21T03:02:58;8.03;;;6.50;;
58089;SDS011;45149;50.976;6.120;2023-11-21T03:05:24;9.35;;;6.90;;
58089;SDS011;45149;50.976;6.120;2023-11-21T03:07:49;7.97;;;6.30;;
58089;SDS011;45149;50.976;6.120;2023-11-21T03:10:14;8.10;;;6.30;;
58089;SDS011;45149;50.976;6.120;2023-11-21T03:12:39;8.32;;;6.75;;
58089;SDS011;45149;50.976;6.120;2023-11-21T03:15:06;7.50;;;6.07;;
58089;SDS011;45149;50.976;6.120;2023-11-21T03:17:32;7.70;;;6.22;;
58089;SDS011;45149;50.976;6.120;2023-11-21T03:19:57;9.18;;;6.22;;
58089;SDS011;45149;50.976;6.120;2023-11-21T03:22:22;8.33;;;6.47;;
58089;SDS011;45149;50.976;6.120;2023-11-21T03:24:47;8.20;;;6.60;;
58089;SDS011;45149;50.976;6.120;2023-11-21T03:27:13;8.63;;;6.43;;
58089;SDS011;45149;50.976;6.120;2023-11-21T03:29:38;7.53;;;6.07;;
58089;SDS011;45149;50.976;6.120;2023-11-21T03:32:05;7.90;;;6.23;;
58089;SDS011;45149;50.976;6.120;2023-11-21T03:34:30;8.32;;;6.25;;
58089;SDS011;45149;50.976;6.120;2023-11-21T03:36:55;7.73;;;6.10;;
58089;SDS011;45149;50.976;6.120;2023-11-21T03:39:20;7.10;;;5.63;;
58089;SDS011;45149;50.976;6.120;2023-11-21T03:41:46;7.85;;;6.18;;
58089;SDS011;45149;50.976;6.120;2023-11-21T03:44:11;7.97;;;6.03;;
58089;SDS011;45149;50.976;6.120;2023-11-21T03:46:36;8.63;;;6.67;;
58089;SDS011;45149;50.976;6.120;2023-11-21T03:49:03;8.33;;;6.10;;
58089;SDS011;45149;50.976;6.120;2023-11-21T03:51:28;7.47;;;5.75;;
58089;SDS011;45149;50.976;6.120;2023-11-21T03:53:53;7.50;;;5.97;;
58089;SDS011;45149;50.976;6.120;2023-11-21T03:56:18;7.80;;;5.80;;
58089;SDS011;45149;50.976;6.120;2023-11-21T03:58:43;8.13;;;6.40;;
58089;SDS011;45149;50.976;6.120;2023-11-21T04:01:09;8.13;;;6.40;;
58089;SDS011;45149;50.976;6.120;2023-11-21T04:03:34;7.10;;;5.60;;
58089;SDS011;45149;50.976;6.120;2023-11-21T04:06:00;7.70;;;5.97;;
58089;SDS011;45149;50.976;6.120;2023-11-21T04:08:25;7.68;;;6.15;;
58089;SDS011;45149;50.976;6.120;2023-11-21T04:10:50;8.13;;;6.17;;
58089;SDS011;45149;50.976;6.120;2023-11-21T04:13:16;7.80;;;6.07;;
58089;SDS011;45149;50.976;6.120;2023-11-21T04:15:41;7.30;;;5.73;;
58089;SDS011;45149;50.976;6.120;2023-11-21T04:18:06;7.43;;;5.80;;
58089;SDS011;45149;50.976;6.120;2023-11-21T04:20:31;8.03;;;6.23;;
58089;SDS011;45149;50.976;6.120;2023-11-21T04:22:58;7.80;;;6.00;;
58089;SDS011;45149;50.976;6.120;2023-11-21T04:25:23;6.90;;;5.43;;
58089;SDS011;45149;50.976;6.120;2023-11-21T04:27:48;7.07;;;5.70;;
58089;SDS011;45149;50.976;6.120;2023-11-21T04:30:13;7.17;;;5.50;;
58089;SDS011;45149;50.976;6.120;2023-11-21T04:32:39;7.60;;;5.57;;
58089;SDS011;45149;50.976;6.120;2023-11-21T04:35:04;7.28;;;5.82;;
58089;SDS011;45149;50.976;6.120;2023-11-21T04:37:30;8.07;;;5.93;;
58089;SDS011;45149;50.976;6.120;2023-11-21T04:39:56;8.00;;;6.00;;
58089;SDS011;45149;50.976;6.120;2023-11-21T04:42:21;7.82;;;5.82;;
58089;SDS011;45149;50.976;6.120;2023-11-21T04:44:47;6.93;;;5.50;;
58089;SDS011;45149;50.976;6.120;2023-11-21T04:47:12;6.37;;;5.30;;
58089;SDS011;45149;50.976;6.120;2023-11-21T04:49:37;7.77;;;5.90;;
58089;SDS011;45149;50.976;6.120;2023-11-21T04:52:02;7.13;;;5.67;;
58089;SDS011;45149;50.976;6.120;2023-11-21T04:54:27;6.78;;;5.53;;
58089;SDS011;45149;50.976;6.120;2023-11-21T04:56:54;7.80;;;5.73;;
58089;SDS011;45149;50.976;6.120;2023-11-21T04:59:19;5.88;;;5.28;;
58089;SDS011;45149;50.976;6.120;2023-11-21T05:01:44;7.40;;;5.90;;
58089;SDS011;45149;50.976;6.120;2023-11-21T05:04:09;7.00;;;5.50;;
58089;SDS011;45149;50.976;6.120;2023-11-21T05:06:35;7.43;;;5.40;;
58089;SDS011;45149;50.976;6.120;2023-11-21T05:09:00;7.57;;;5.50;;
58089;SDS011;45149;50.976;6.120;2023-11-21T05:11:25;6.90;;;5.43;;
58089;SDS011;45149;50.976;6.120;2023-11-21T05:13:52;6.68;;;5.15;;
58089;SDS011;45149;50.976;6.120;2023-11-21T05:16:17;6.55;;;5.43;;
58089;SDS011;45149;50.976;6.120;2023-11-21T05:18:42;6.63;;;5.40;;
58089;SDS011;45149;50.976;6.120;2023-11-21T05:21:07;6.50;;;5.30;;
58089;SDS011;45149;50.976;6.120;2023-11-21T05:23:32;6.77;;;5.37;;
58089;SDS011;45149;50.976;6.120;2023-11-21T05:25:58;6.27;;;4.83;;
58089;SDS011;45149;50.976;6.120;2023-11-21T05:28:23;6.73;;;5.70;;
58089;SDS011;45149;50.976;6.120;2023-11-21T05:30:49;7.00;;;5.40;;
58089;SDS011;45149;50.976;6.120;2023-11-21T05:33:14;6.75;;;5.47;;
58089;SDS011;45149;50.976;6.120;2023-11-21T05:35:39;7.00;;;5.20;;
58089;SDS011;45149;50.976;6.120;2023-11-21T05:38:05;6.27;;;5.13;;
58089;SDS011;45149;50.976;6.120;2023-11-21T05:40:30;7.47;;;5.43;;
58089;SDS011;45149;50.976;6.120;2023-11-21T05:42:55;7.07;;;5.30;;
58089;SDS011;45149;50.976;6.120;2023-11-21T05:45:20;7.07;;;5.63;;
58089;SDS011;45149;50.976;6.120;2023-11-21T05:47:47;6.50;;;5.13;;
58089;SDS011;45149;50.976;6.120;2023-11-21T05:50:12;6.68;;;5.15;;
58089;SDS011;45149;50.976;6.120;2023-11-21T05:52:38;7.35;;;5.60;;
58089;SDS011;45149;50.976;6.120;2023-11-21T05:55:03;6.50;;;5.18;;
58089;SDS011;45149;50.976;6.120;2023-11-21T05:57:29;6.50;;;5.28;;
58089;SDS011;45149;50.976;6.120;2023-11-21T05:59:54;6.20;;;5.33;;
58089;SDS011;45149;50.976;6.120;2023-11-21T06:02:19;7.73;;;5.00;;
58089;SDS011;45149;50.976;6.120;2023-11-21T06:04:46;6.63;;;5.10;;
58089;SDS011;45149;50.976;6.120;2023-11-21T06:07:11;6.40;;;5.10;;
58089;SDS011;45149;50.976;6.120;2023-11-21T06:09:36;6.20;;;5.03;;
58089;SDS011;45149;50.976;6.120;2023-11-21T06:12:02;7.05;;;5.25;;
58089;SDS011;45149;50.976;6.120;2023-11-21T06:14:27;6.13;;;5.00;;
58089;SDS011;45149;50.976;6.120;2023-11-21T06:16:52;6.47;;;5.33;;
58089;SDS011;45149;50.976;6.120;2023-11-21T06:19:17;6.70;;;5.07;;
58089;SDS011;45149;50.976;6.120;2023-11-21T06:21:46;6.77;;;5.20;;
58089;SDS011;45149;50.976;6.120;2023-11-21T06:24:11;6.32;;;4.93;;
58089;SDS011;45149;50.976;6.120;2023-11-21T06:26:36;5.90;;;4.87;;
58089;SDS011;45149;50.976;6.120;2023-11-21T06:29:01;6.17;;;5.10;;
58089;SDS011;45149;50.976;6.120;2023-11-21T06:31:26;7.00;;;5.27;;
58089;SDS011;45149;50.976;6.120;2023-11-21T06:33:52;6.10;;;4.97;;
58089;SDS011;45149;50.976;6.120;2023-11-21T06:36:17;6.03;;;5.10;;
58089;SDS011;45149;50.976;6.120;2023-11-21T06:38:43;6.00;;;4.90;;
58089;SDS011;45149;50.976;6.120;2023-11-21T06:41:08;6.00;;;4.70;;
58089;SDS011;45149;50.976;6.120;2023-11-21T06:43:34;6.23;;;4.70;;
58089;SDS011;45149;50.976;6.120;2023-11-21T06:45:59;6.63;;;4.67;;
58089;SDS011;45149;50.976;6.120;2023-11-21T06:48:24;5.88;;;4.85;;
58089;SDS011;45149;50.976;6.120;2023-11-21T06:50:49;7.00;;;5.43;;
58089;SDS011;45149;50.976;6.120;2023-11-21T06:53:15;5.30;;;4.63;;
58089;SDS011;45149;50.976;6.120;2023-11-21T06:55:41;5.90;;;4.73;;
58089;SDS011;45149;50.976;6.120;2023-11-21T06:58:06;6.10;;;4.90;;
58089;SDS011;45149;50.976;6.120;2023-11-21T07:00:32;5.87;;;4.60;;
58089;SDS011;45149;50.976;6.120;2023-11-21T07:02:57;5.82;;;4.50;;
58089;SDS011;45149;50.976;6.120;2023-11-21T07:05:22;6.30;;;4.87;;
58089;SDS011;45149;50.976;6.120;2023-11-21T07:07:47;5.63;;;4.60;;
58089;SDS011;45149;50.976;6.120;2023-11-21T07:10:13;5.85;;;4.60;;
58089;SDS011;45149;50.976;6.120;2023-11-21T07:12:39;30.83;;;9.97;;
58089;SDS011;45149;50.976;6.120;2023-11-21T07:15:05;48.38;;;13.15;;
58089;SDS011;45149;50.976;6.120;2023-11-21T07:17:30;90.78;;;22.08;;
58089;SDS011;45149;50.976;6.120;2023-11-21T07:19:55;103.63;;;25.23;;
58089;SDS011;45149;50.976;6.120;2023-11-21T07:22:21;87.67;;;21.87;;
58089;SDS011;45149;50.976;6.120;2023-11-21T07:24:46;83.07;;;22.23;;
58089;SDS011;45149;50.976;6.120;2023-11-21T07:27:12;61.03;;;17.30;;
58089;SDS011;45149;50.976;6.120;2023-11-21T07:29:39;59.10;;;17.33;;
58089;SDS011;45149;50.976;6.120;2023-11-21T07:32:04;56.85;;;16.67;;
58089;SDS011;45149;50.976;6.120;2023-11-21T07:34:30;61.30;;;17.10;;
58089;SDS011;45149;50.976;6.120;2023-11-21T07:36:55;49.03;;;15.63;;
58089;SDS011;45149;50.976;6.120;2023-11-21T07:39:20;52.28;;;17.10;;
58089;SDS011;45149;50.976;6.120;2023-11-21T07:41:45;52.60;;;15.73;;
58089;SDS011;45149;50.976;6.120;2023-11-21T07:44:10;53.93;;;16.90;;
58089;SDS011;45149;50.976;6.120;2023-11-21T07:46:37;49.53;;;16.40;;
58089;SDS011;45149;50.976;6.120;2023-11-21T07:49:02;50.88;;;16.88;;
58089;SDS011;45149;50.976;6.120;2023-11-21T07:51:27;45.90;;;16.37;;
58089;SDS011;45149;50.976;6.120;2023-11-21T07:53:52;51.93;;;15.53;;
58089;SDS011;45149;50.976;6.120;2023-11-21T07:56:17;45.30;;;16.57;;
58089;SDS011;45149;50.976;6.120;2023-11-21T07:58:43;48.23;;;15.53;;
58089;SDS011;45149;50.976;6.120;2023-11-21T08:01:08;43.70;;;15.55;;
58089;SDS011;45149;50.976;6.120;2023-11-21T08:03:35;47.75;;;16.48;;
58089;SDS011;45149;50.976;6.120;2023-11-21T08:06:00;45.60;;;16.42;;
58089;SDS011;45149;50.976;6.120;2023-11-21T08:08:25;42.55;;;15.70;;
58089;SDS011;45149;50.976;6.120;2023-11-21T08:10:51;42.83;;;15.23;;
58089;SDS011;45149;50.976;6.120;2023-11-21T08:13:16;40.50;;;16.33;;
58089;SDS011;45149;50.976;6.120;2023-11-21T08:15:41;39.47;;;15.17;;
58089;SDS011;45149;50.976;6.120;2023-11-21T08:18:06;39.40;;;14.77;;
58089;SDS011;45149;50.976;6.120;2023-11-21T08:20:33;45.67;;;15.87;;
58089;SDS011;45149;50.976;6.120;2023-11-21T08:22:58;40.78;;;15.05;;
58089;SDS011;45149;50.976;6.120;2023-11-21T08:25:23;40.77;;;15.63;;
58089;SDS011;45149;50.976;6.120;2023-11-21T08:27:48;43.40;;;15.40;;
58089;SDS011;45149;50.976;6.120;2023-11-21T08:30:13;36.77;;;14.47;;
58089;SDS011;45149;50.976;6.120;2023-11-21T08:32:39;40.20;;;14.98;;
58089;SDS011;45149;50.976;6.120;2023-11-21T08:35:04;35.43;;;14.97;;
58089;SDS011;45149;50.976;6.120;2023-11-21T08:37:30;39.83;;;16.02;;
58089;SDS011;45149;50.976;6.120;2023-11-21T08:39:57;39.80;;;15.40;;
58089;SDS011;45149;50.976;6.120;2023-11-21T08:42:23;37.92;;;14.00;;
58089;SDS011;45149;50.976;6.120;2023-11-21T08:44:48;39.27;;;15.20;;
58089;SDS011;45149;50.976;6.120;2023-11-21T08:47:13;42.73;;;16.40;;
58089;SDS011;45149;50.976;6.120;2023-11-21T08:49:38;42.33;;;15.97;;
58089;SDS011;45149;50.976;6.120;2023-11-21T08:52:03;38.27;;;14.93;;
58089;SDS011;45149;50.976;6.120;2023-11-21T08:54:30;36.33;;;15.47;;
58089;SDS011;45149;50.976;6.120;2023-11-21T08:56:55;38.22;;;14.50;;
58089;SDS011;45149;50.976;6.120;2023-11-21T08:59:20;31.87;;;14.60;;
58089;SDS011;45149;50.976;6.120;2023-11-21T09:01:45;31.77;;;13.67;;
58089;SDS011;45149;50.976;6.120;2023-11-21T09:04:10;30.37;;;14.13;;
58089;SDS011;45149;50.976;6.120;2023-11-21T09:06:36;34.43;;;13.47;;
58089;SDS011;45149;50.976;6.120;2023-11-21T09:09:01;30.97;;;13.43;;
58089;SDS011;45149;50.976;6.120;2023-11-21T09:11:27;32.40;;;14.40;;
58089;SDS011;45149;50.976;6.120;2023-11-21T09:13:52;31.15;;;13.82;;
58089;SDS011;45149;50.976;6.120;2023-11-21T09:16:18;33.03;;;14.77;;
58089;SDS011;45149;50.976;6.120;2023-11-21T09:18:43;29.90;;;13.77;;
58089;SDS011;45149;50.976;6.120;2023-11-21T09:21:08;32.63;;;14.60;;
58089;SDS011;45149;50.976;6.120;2023-11-21T09:23:33;30.00;;;13.70;;
58089;SDS011;45149;50.976;6.120;2023-11-21T09:25:59;30.63;;;13.90;;
58089;SDS011;45149;50.976;6.120;2023-11-21T09:28:25;32.77;;;13.70;;
58089;SDS011;45149;50.976;6.120;2023-11-21T09:30:50;29.48;;;13.55;;
58089;SDS011;45149;50.976;6.120;2023-11-21T09:33:15;31.63;;;13.00;;
58089;SDS011;45149;50.976;6.120;2023-11-21T09:35:41;30.53;;;13.10;;
58089;SDS011;45149;50.976;6.120;2023-11-21T09:38:06;27.33;;;13.37;;
58089;SDS011;45149;50.976;6.120;2023-11-21T09:40:31;27.10;;;12.87;;
58089;SDS011;45149;50.976;6.120;2023-11-21T09:42:56;27.20;;;12.70;;
58089;SDS011;45149;50.976;6.120;2023-11-21T09:45:25;29.52;;;13.27;;
58089;SDS011;45149;50.976;6.120;2023-11-21T09:47:51;26.88;;;13.02;;
58089;SDS011;45149;50.976;6.120;2023-11-21T09:50:17;28.92;;;13.07;;
58089;SDS011;45149;50.976;6.120;2023-11-21T09:52:44;27.20;;;14.07;;
58089;SDS011;45149;50.976;6.120;2023-11-21T09:55:13;28.37;;;13.80;;
58089;SDS011;45149;50.976;6.120;2023-11-21T09:57:38;27.25;;;13.60;;
58089;SDS011;45149;50.976;6.120;2023-11-21T10:00:04;30.97;;;13.60;;
58089;SDS011;45149;50.976;6.120;2023-11-21T10:02:30;29.95;;;13.00;;
58089;SDS011;45149;50.976;6.120;2023-11-21T10:04:58;33.35;;;13.95;;
58089;SDS011;45149;50.976;6.120;2023-11-21T10:07:23;24.88;;;12.40;;
58089;SDS011;45149;50.976;6.120;2023-11-21T10:09:48;25.33;;;12.68;;
58089;SDS011;45149;50.976;6.120;2023-11-21T10:12:16;24.27;;;12.73;;
58089;SDS011;45149;50.976;6.120;2023-11-21T10:14:41;28.10;;;13.40;;
58089;SDS011;45149;50.976;6.120;2023-11-21T10:17:07;20.90;;;12.55;;
58089;SDS011;45149;50.976;6.120;2023-11-21T10:19:33;26.42;;;13.02;;
58089;SDS011;45149;50.976;6.120;2023-11-21T10:22:00;25.92;;;13.88;;
58089;SDS011;45149;50.976;6.120;2023-11-21T10:24:26;26.55;;;12.68;;
